createdAt,value
2018-01-06T00:01:15.981Z,2.70
2018-01-06T00:03:45.402Z,2.00
2018-01-06T00:06:14.857Z,2.17
2018-01-06T00:08:44.294Z,2.43
2018-01-06T00:11:13.774Z,3.20
2018-01-06T00:13:43.214Z,2.80
2018-01-06T00:16:12.678Z,2.13
2018-01-06T00:18:42.305Z,2.30
2018-01-06T00:21:13.281Z,1.80
2018-01-06T00:23:42.730Z,3.20
2018-01-06T00:26:12.169Z,1.87
2018-01-06T00:28:41.606Z,2.47
2018-01-06T00:31:11.089Z,2.27
2018-01-06T00:33:40.533Z,2.40
2018-01-06T00:36:10.004Z,2.60
2018-01-06T00:38:39.485Z,2.57
2018-01-06T00:41:08.927Z,2.60
2018-01-06T00:43:38.358Z,2.33
2018-01-06T00:46:07.818Z,2.60
2018-01-06T00:48:37.265Z,2.63
2018-01-06T00:51:06.786Z,2.77
2018-01-06T00:53:36.243Z,2.73
2018-01-06T00:56:05.681Z,2.27
2018-01-06T00:58:35.111Z,2.70
2018-01-06T01:01:04.568Z,2.20
2018-01-06T01:03:34.014Z,2.30
2018-01-06T01:06:03.466Z,2.23
2018-01-06T01:08:32.902Z,1.70
2018-01-06T01:11:02.358Z,3.00
2018-01-06T01:13:31.789Z,2.90
2018-01-06T01:16:01.246Z,3.00
2018-01-06T01:18:30.721Z,4.03
2018-01-06T01:21:00.177Z,4.50
2018-01-06T01:23:29.641Z,3.83
2018-01-06T01:25:59.110Z,4.27
2018-01-06T01:28:28.536Z,5.53
2018-01-06T01:30:57.982Z,4.70
2018-01-06T01:33:27.470Z,5.03
2018-01-06T01:35:56.911Z,5.60
2018-01-06T01:38:26.329Z,5.67
2018-01-06T01:40:55.781Z,5.83
2018-01-06T01:43:25.217Z,5.87
2018-01-06T01:45:54.664Z,6.57
2018-01-06T01:48:24.155Z,6.90
2018-01-06T01:50:53.601Z,7.43
2018-01-06T01:53:23.049Z,7.20
2018-01-06T01:55:52.489Z,7.50
2018-01-06T01:58:21.995Z,8.43
2018-01-06T02:00:51.449Z,6.90
2018-01-06T02:03:20.905Z,7.77
2018-01-06T02:05:50.350Z,7.47
2018-01-06T02:08:19.916Z,7.80
2018-01-06T02:10:49.519Z,7.90
2018-01-06T02:13:18.946Z,7.90
2018-01-06T02:15:48.433Z,8.00
2018-01-06T02:18:17.861Z,7.80
2018-01-06T02:20:47.282Z,9.27
2018-01-06T02:23:16.721Z,8.30
2018-01-06T02:25:46.154Z,7.67
2018-01-06T02:28:15.617Z,6.93
2018-01-06T02:30:45.045Z,7.73
2018-01-06T02:33:14.507Z,7.00
2018-01-06T02:35:43.945Z,8.20
2018-01-06T02:38:13.417Z,7.30
2018-01-06T02:40:42.843Z,8.23
2018-01-06T02:43:12.279Z,8.40
2018-01-06T02:45:41.930Z,7.77
2018-01-06T02:48:11.354Z,10.00
2018-01-06T02:50:40.821Z,9.63
2018-01-06T02:53:10.265Z,8.57
2018-01-06T02:55:39.724Z,9.60
2018-01-06T02:58:09.173Z,9.30
2018-01-06T03:00:38.634Z,9.30
2018-01-06T03:03:08.075Z,9.00
2018-01-06T03:05:37.569Z,9.00
2018-01-06T03:08:07.015Z,9.17
2018-01-06T03:10:36.455Z,9.47
2018-01-06T03:13:05.926Z,8.73
2018-01-06T03:15:35.382Z,9.60
2018-01-06T03:18:04.855Z,9.47
2018-01-06T03:20:34.294Z,8.97
2018-01-06T03:23:03.727Z,9.50
2018-01-06T03:25:33.183Z,8.47
2018-01-06T03:28:02.635Z,9.50
2018-01-06T03:30:32.063Z,8.70
2018-01-06T03:33:01.506Z,8.37
2018-01-06T03:35:30.930Z,8.37
2018-01-06T03:38:00.364Z,7.30
2018-01-06T03:40:29.970Z,8.00
2018-01-06T03:42:59.414Z,7.50
2018-01-06T03:45:28.858Z,6.43
2018-01-06T03:47:58.282Z,5.93
2018-01-06T03:50:27.745Z,7.43
2018-01-06T03:52:57.181Z,7.03
2018-01-06T03:55:26.634Z,7.00
2018-01-06T03:57:56.078Z,7.30
2018-01-06T04:00:25.534Z,7.73
2018-01-06T04:02:54.821Z,6.97
2018-01-06T04:05:24.274Z,7.90
2018-01-06T04:07:53.726Z,6.03
2018-01-06T04:10:23.159Z,5.83
2018-01-06T04:12:52.615Z,7.47
2018-01-06T04:15:22.068Z,13.67
2018-01-06T04:17:51.525Z,15.17
2018-01-06T04:20:20.979Z,13.17
2018-01-06T04:22:50.425Z,14.57
2018-01-06T04:25:19.870Z,16.30
2018-01-06T04:27:49.353Z,16.43
2018-01-06T04:30:18.786Z,14.80
2018-01-06T04:32:48.274Z,12.50
2018-01-06T04:35:17.714Z,13.13
2018-01-06T04:37:47.170Z,13.37
2018-01-06T04:40:16.600Z,16.43
2018-01-06T04:42:45.713Z,15.40
2018-01-06T04:45:15.159Z,15.37
2018-01-06T04:47:44.590Z,11.80
2018-01-06T04:50:13.719Z,15.50
2018-01-06T04:52:43.145Z,8.53
2018-01-06T04:55:12.602Z,19.47
2018-01-06T04:57:42.042Z,15.10
2018-01-06T05:00:11.162Z,17.00
2018-01-06T05:02:40.585Z,17.70
2018-01-06T05:05:10.051Z,18.97
2018-01-06T05:07:39.494Z,18.20
2018-01-06T05:10:08.646Z,25.73
2018-01-06T05:12:38.109Z,29.00
2018-01-06T05:15:07.542Z,27.90
2018-01-06T05:17:37.062Z,21.50
2018-01-06T05:20:06.646Z,20.77
2018-01-06T05:22:36.079Z,21.13
2018-01-06T05:25:05.534Z,22.40
2018-01-06T05:27:34.986Z,22.50
2018-01-06T05:30:04.436Z,24.70
2018-01-06T05:32:33.902Z,24.77
2018-01-06T05:35:03.355Z,20.60
2018-01-06T05:37:32.905Z,20.43
2018-01-06T05:40:02.381Z,20.50
2018-01-06T05:42:31.861Z,21.03
2018-01-06T05:45:01.289Z,21.00
2018-01-06T05:47:30.742Z,20.73
2018-01-06T05:50:00.227Z,18.50
2018-01-06T05:52:29.686Z,20.73
2018-01-06T05:54:59.159Z,20.50
2018-01-06T05:57:28.769Z,19.80
2018-01-06T05:59:58.226Z,19.90
2018-01-06T06:02:27.661Z,18.53
2018-01-06T06:04:57.108Z,17.47
2018-01-06T06:07:26.573Z,19.00
2018-01-06T06:09:56.025Z,23.00
2018-01-06T06:12:25.465Z,17.73
2018-01-06T06:14:54.930Z,18.27
2018-01-06T06:17:24.362Z,18.93
2018-01-06T06:19:53.813Z,16.03
2018-01-06T06:22:23.236Z,17.70
2018-01-06T06:24:52.721Z,17.73
2018-01-06T06:27:22.142Z,17.70
2018-01-06T06:29:51.610Z,15.57
2018-01-06T06:32:21.042Z,15.57
2018-01-06T06:34:50.471Z,16.53
2018-01-06T06:37:19.961Z,14.67
2018-01-06T06:39:49.403Z,14.53
2018-01-06T06:42:18.830Z,16.20
2018-01-06T06:44:48.314Z,14.97
2018-01-06T06:47:17.442Z,17.60
2018-01-06T06:49:47.087Z,16.70
2018-01-06T06:52:16.650Z,17.13
2018-01-06T06:54:46.086Z,17.87
2018-01-06T06:57:15.234Z,16.00
2018-01-06T06:59:44.349Z,16.47
2018-01-06T07:02:13.602Z,18.00
2018-01-06T07:04:43.046Z,17.50
2018-01-06T07:07:12.506Z,17.40
2018-01-06T07:09:41.965Z,17.30
2018-01-06T07:12:11.425Z,17.97
2018-01-06T07:14:40.878Z,15.23
2018-01-06T07:17:10.325Z,16.63
2018-01-06T07:19:39.773Z,15.50
2018-01-06T07:22:09.178Z,16.13
2018-01-06T07:24:38.628Z,14.80
2018-01-06T07:27:08.083Z,16.80
2018-01-06T07:29:37.563Z,16.47
2018-01-06T07:32:07.002Z,16.00
2018-01-06T07:34:36.462Z,17.03
2018-01-06T07:37:05.947Z,18.07
2018-01-06T07:39:35.385Z,17.23
2018-01-06T07:42:04.834Z,17.60
2018-01-06T07:44:34.286Z,17.83
2018-01-06T07:47:03.765Z,14.57
2018-01-06T07:49:33.214Z,15.23
2018-01-06T07:52:02.461Z,14.43
2018-01-06T07:54:31.900Z,14.83
2018-01-06T07:57:01.429Z,14.00
2018-01-06T07:59:30.884Z,12.00
2018-01-06T08:02:00.347Z,11.63
2018-01-06T08:04:29.790Z,10.00
2018-01-06T08:06:59.265Z,9.57
2018-01-06T08:09:28.758Z,10.30
2018-01-06T08:11:58.182Z,9.77
2018-01-06T08:14:27.637Z,10.00
2018-01-06T08:16:57.085Z,11.77
2018-01-06T08:19:26.535Z,10.60
2018-01-06T08:21:56.097Z,10.40
2018-01-06T08:24:25.529Z,11.10
2018-01-06T08:26:55.050Z,10.20
2018-01-06T08:29:24.490Z,9.07
2018-01-06T08:31:53.953Z,11.10
2018-01-06T08:34:23.386Z,12.77
2018-01-06T08:36:52.837Z,12.80
2018-01-06T08:39:22.279Z,10.73
2018-01-06T08:41:51.755Z,9.33
2018-01-06T08:44:21.189Z,10.53
2018-01-06T08:46:50.703Z,9.90
2018-01-06T08:49:20.138Z,10.90
2018-01-06T08:51:49.602Z,11.10
2018-01-06T08:54:19.038Z,10.87
2018-01-06T08:56:48.551Z,12.00
2018-01-06T08:59:17.986Z,11.53
2018-01-06T09:01:47.445Z,11.60
2018-01-06T09:04:16.891Z,11.33
2018-01-06T09:06:46.417Z,12.27
2018-01-06T09:09:15.866Z,13.37
2018-01-06T09:11:45.309Z,13.10
2018-01-06T09:14:14.784Z,15.33
2018-01-06T09:16:44.242Z,16.03
2018-01-06T09:19:13.678Z,18.93
2018-01-06T09:21:43.153Z,17.50
2018-01-06T09:24:12.593Z,16.63
2018-01-06T09:26:42.054Z,15.10
2018-01-06T09:29:11.503Z,12.90
2018-01-06T09:31:40.590Z,14.77
2018-01-06T09:34:10.075Z,14.10
2018-01-06T09:36:39.523Z,13.67
2018-01-06T09:39:08.955Z,15.10
2018-01-06T09:41:38.443Z,13.20
2018-01-06T09:44:07.888Z,12.50
2018-01-06T09:46:37.334Z,13.03
2018-01-06T09:49:06.814Z,13.50
2018-01-06T09:51:36.427Z,12.57
2018-01-06T09:54:05.902Z,12.50
2018-01-06T09:56:35.382Z,11.87
2018-01-06T09:59:04.907Z,10.60
2018-01-06T10:01:34.415Z,10.80
2018-01-06T10:04:03.859Z,9.17
2018-01-06T10:06:33.309Z,9.80
2018-01-06T10:09:02.796Z,9.43
2018-01-06T10:11:32.265Z,9.00
2018-01-06T10:14:01.697Z,8.93
2018-01-06T10:16:31.149Z,9.83
2018-01-06T10:19:00.685Z,9.93
2018-01-06T10:21:30.122Z,9.63
2018-01-06T10:23:59.562Z,10.90
2018-01-06T10:26:29.004Z,10.30
2018-01-06T10:28:58.581Z,10.07
2018-01-06T10:31:28.055Z,9.07
2018-01-06T10:33:57.679Z,8.07
2018-01-06T10:36:27.114Z,5.83
2018-01-06T10:38:56.569Z,5.53
2018-01-06T10:41:26.006Z,6.50
2018-01-06T10:43:55.462Z,6.70
2018-01-06T10:46:25.042Z,6.23
2018-01-06T10:48:54.498Z,6.00
2018-01-06T10:51:23.601Z,5.93
2018-01-06T10:53:53.049Z,8.20
2018-01-06T10:56:22.502Z,6.80
2018-01-06T10:58:51.935Z,6.53
2018-01-06T11:01:42.021Z,5.43
2018-01-06T11:04:11.446Z,4.00
2018-01-06T11:06:40.914Z,4.47
2018-01-06T11:09:10.346Z,5.10
2018-01-06T11:11:39.798Z,4.47
2018-01-06T11:14:09.304Z,4.87
2018-01-06T11:16:38.752Z,3.10
2018-01-06T11:19:08.198Z,3.90
2018-01-06T11:21:37.698Z,4.87
2018-01-06T11:24:07.111Z,5.03
2018-01-06T11:26:36.562Z,3.73
2018-01-06T11:29:06.007Z,4.40
2018-01-06T11:31:35.441Z,3.90
2018-01-06T11:34:04.883Z,4.80
2018-01-06T11:36:34.322Z,3.70
2018-01-06T11:39:03.234Z,3.73
2018-01-06T11:41:32.737Z,3.43
2018-01-06T11:44:02.163Z,3.83
2018-01-06T11:46:31.613Z,3.47
2018-01-06T11:49:01.070Z,3.70
2018-01-06T11:51:30.568Z,3.20
2018-01-06T11:54:00.037Z,4.40
2018-01-06T11:56:29.538Z,4.10
2018-01-06T11:58:59.094Z,3.77
2018-01-06T12:01:28.544Z,4.00
2018-01-06T12:03:57.986Z,4.00
2018-01-06T12:06:27.482Z,3.80
2018-01-06T12:08:57.006Z,3.93
2018-01-06T12:11:26.528Z,3.80
2018-01-06T12:13:55.961Z,4.27
2018-01-06T12:16:25.405Z,3.57
2018-01-06T12:18:54.853Z,3.20
2018-01-06T12:21:24.350Z,3.20
2018-01-06T12:23:53.787Z,3.13
2018-01-06T12:26:23.237Z,2.80
2018-01-06T12:28:52.673Z,2.37
2018-01-06T12:31:22.126Z,2.77
2018-01-06T12:33:51.586Z,2.50
2018-01-06T12:36:21.142Z,3.30
2018-01-06T12:38:50.600Z,3.23
2018-01-06T12:41:20.135Z,3.40
2018-01-06T12:43:49.611Z,2.57
2018-01-06T12:46:18.918Z,3.00
2018-01-06T12:48:48.439Z,2.80
2018-01-06T12:51:17.882Z,2.63
2018-01-06T12:53:47.309Z,2.97
2018-01-06T12:56:16.802Z,2.37
2018-01-06T12:58:46.237Z,2.90
2018-01-06T13:01:15.691Z,2.93
2018-01-06T13:03:45.109Z,2.97
2018-01-06T13:06:14.554Z,3.03
2018-01-06T13:08:44.006Z,2.43
2018-01-06T13:11:13.482Z,2.83
2018-01-06T13:13:42.914Z,2.90
2018-01-06T13:16:12.365Z,2.57
2018-01-06T13:18:41.815Z,2.73
2018-01-06T13:21:11.273Z,3.53
2018-01-06T13:23:40.720Z,3.17
2018-01-06T13:26:10.178Z,2.70
2018-01-06T13:28:39.622Z,2.87
2018-01-06T13:31:09.106Z,3.13
2018-01-06T13:33:38.583Z,2.87
2018-01-06T13:36:08.010Z,3.17
2018-01-06T13:38:37.454Z,3.20
2018-01-06T13:41:06.898Z,2.93
2018-01-06T13:43:36.333Z,3.33
2018-01-06T13:46:05.770Z,3.10
2018-01-06T13:48:35.413Z,3.17
2018-01-06T13:51:04.898Z,2.83
2018-01-06T13:53:34.354Z,2.73
2018-01-06T13:56:03.802Z,3.70
2018-01-06T13:58:33.268Z,3.10
2018-01-06T14:01:02.713Z,3.03
2018-01-06T14:03:32.162Z,3.03
2018-01-06T14:06:01.605Z,3.80
2018-01-06T14:08:31.234Z,3.43
2018-01-06T14:11:00.670Z,3.70
2018-01-06T14:13:30.136Z,4.00
2018-01-06T14:15:59.572Z,2.70
2018-01-06T14:18:29.031Z,3.50
2018-01-06T14:20:58.457Z,3.00
2018-01-06T14:23:27.897Z,2.83
2018-01-06T14:25:57.324Z,3.20
2018-01-06T14:28:26.770Z,3.40
2018-01-06T14:30:56.388Z,5.03
2018-01-06T14:33:25.840Z,3.60
2018-01-06T14:35:55.266Z,3.90
2018-01-06T14:38:24.732Z,3.10
2018-01-06T14:40:54.162Z,3.50
2018-01-06T14:43:23.596Z,2.97
2018-01-06T14:45:53.055Z,3.50
2018-01-06T14:48:22.529Z,3.13
2018-01-06T14:50:51.977Z,3.00
2018-01-06T14:53:21.419Z,3.13
2018-01-06T14:55:50.902Z,4.37
2018-01-06T14:58:20.357Z,3.73
2018-01-06T15:00:49.818Z,3.53
2018-01-06T15:03:19.262Z,3.40
2018-01-06T15:05:48.952Z,2.90
2018-01-06T15:08:18.367Z,3.20
2018-01-06T15:10:47.870Z,3.07
2018-01-06T15:13:17.414Z,3.37
2018-01-06T15:15:46.860Z,2.90
2018-01-06T15:18:16.376Z,2.83
2018-01-06T15:20:45.847Z,3.10
2018-01-06T15:23:15.318Z,3.43
2018-01-06T15:25:44.770Z,3.30
2018-01-06T15:28:14.240Z,3.27
2018-01-06T15:30:43.739Z,3.50
2018-01-06T15:33:13.186Z,4.00
2018-01-06T15:35:42.643Z,3.63
2018-01-06T15:38:12.101Z,3.40
2018-01-06T15:40:41.534Z,4.17
2018-01-06T15:43:11.015Z,4.13
2018-01-06T15:45:40.483Z,4.40
2018-01-06T15:48:10.003Z,4.23
2018-01-06T15:50:39.434Z,4.87
2018-01-06T15:53:08.918Z,3.70
2018-01-06T15:55:38.341Z,3.90
2018-01-06T15:58:07.883Z,4.40
2018-01-06T16:00:37.334Z,4.40
2018-01-06T16:03:06.797Z,4.13
2018-01-06T16:05:36.272Z,4.80
2018-01-06T16:08:05.710Z,3.80
2018-01-06T16:10:35.184Z,4.87
2018-01-06T16:13:04.616Z,5.13
2018-01-06T16:15:34.098Z,7.07
2018-01-06T16:18:03.539Z,7.00
2018-01-06T16:20:32.994Z,6.63
2018-01-06T16:23:02.554Z,9.77
2018-01-06T16:25:31.994Z,8.27
2018-01-06T16:28:01.643Z,7.67
2018-01-06T16:30:31.081Z,8.50
2018-01-06T16:33:00.565Z,7.93
2018-01-06T16:35:29.998Z,8.03
2018-01-06T16:37:59.435Z,7.23
2018-01-06T16:40:28.954Z,8.90
2018-01-06T16:42:58.402Z,8.10
2018-01-06T16:45:27.866Z,8.07
2018-01-06T16:47:57.322Z,9.40
2018-01-06T16:50:26.787Z,12.30
2018-01-06T16:52:56.251Z,8.33
2018-01-06T16:55:25.706Z,9.63
2018-01-06T16:57:55.157Z,10.20
2018-01-06T17:00:24.733Z,13.73
2018-01-06T17:02:54.190Z,10.50
2018-01-06T17:05:23.625Z,10.90
2018-01-06T17:07:53.119Z,10.30
2018-01-06T17:10:22.550Z,10.27
2018-01-06T17:12:52.171Z,9.50
2018-01-06T17:15:21.601Z,8.97
2018-01-06T17:17:51.054Z,8.00
2018-01-06T17:20:20.507Z,8.30
2018-01-06T17:22:49.977Z,7.50
2018-01-06T17:25:19.423Z,8.00
2018-01-06T17:27:48.907Z,7.40
2018-01-06T17:30:18.346Z,6.87
2018-01-06T17:32:47.808Z,7.67
2018-01-06T17:35:17.282Z,7.10
2018-01-06T17:37:46.742Z,7.40
2018-01-06T17:40:16.194Z,6.40
2018-01-06T17:42:45.676Z,7.83
2018-01-06T17:45:15.141Z,7.40
2018-01-06T17:47:44.574Z,8.00
2018-01-06T17:50:14.026Z,8.07
2018-01-06T17:52:43.668Z,8.40
2018-01-06T17:55:13.118Z,8.37
2018-01-06T17:57:42.561Z,8.47
2018-01-06T18:00:12.049Z,9.13
2018-01-06T18:02:41.495Z,8.60
2018-01-06T18:05:10.981Z,9.63
2018-01-06T18:07:40.430Z,9.40
2018-01-06T18:10:09.888Z,8.40
2018-01-06T18:12:39.386Z,9.27
2018-01-06T18:15:08.859Z,10.30
2018-01-06T18:17:38.394Z,9.73
2018-01-06T18:20:07.844Z,10.43
2018-01-06T18:22:37.588Z,8.80
2018-01-06T18:25:06.958Z,8.60
2018-01-06T18:27:36.521Z,11.80
2018-01-06T18:30:05.966Z,11.23
2018-01-06T18:32:35.483Z,11.57
2018-01-06T18:35:04.942Z,10.97
2018-01-06T18:37:34.399Z,10.90
2018-01-06T18:40:03.970Z,10.87
2018-01-06T18:42:33.473Z,12.43
2018-01-06T18:45:03.054Z,15.90
2018-01-06T18:47:32.537Z,12.90
2018-01-06T18:50:01.989Z,11.40
2018-01-06T18:52:31.454Z,12.27
2018-01-06T18:55:00.716Z,12.10
2018-01-06T18:57:30.157Z,12.30
2018-01-06T18:59:59.755Z,14.57
2018-01-06T19:02:29.201Z,13.50
2018-01-06T19:04:58.641Z,12.43
2018-01-06T19:07:28.108Z,12.60
2018-01-06T19:09:57.566Z,13.50
2018-01-06T19:12:27.014Z,14.80
2018-01-06T19:14:56.541Z,14.80
2018-01-06T19:17:25.977Z,16.97
2018-01-06T19:19:55.451Z,14.33
2018-01-06T19:22:25.044Z,14.70
2018-01-06T19:24:54.501Z,15.60
2018-01-06T19:27:23.930Z,14.80
2018-01-06T19:29:53.393Z,15.70
2018-01-06T19:32:22.837Z,14.80
2018-01-06T19:34:52.298Z,16.50
2018-01-06T19:37:21.746Z,15.93
2018-01-06T19:39:51.190Z,16.70
2018-01-06T19:42:20.658Z,15.07
2018-01-06T19:44:50.111Z,17.90
2018-01-06T19:47:19.566Z,19.50
2018-01-06T19:49:49.025Z,19.77
2018-01-06T19:52:18.466Z,20.30
2018-01-06T19:54:47.936Z,19.67
2018-01-06T19:57:17.419Z,20.20
2018-01-06T19:59:46.858Z,19.23
2018-01-06T20:02:16.302Z,19.60
2018-01-06T20:04:45.742Z,20.40
2018-01-06T20:07:15.221Z,20.97
2018-01-06T20:09:44.713Z,21.40
2018-01-06T20:12:14.181Z,22.00
2018-01-06T20:14:43.620Z,21.83
2018-01-06T20:17:13.077Z,21.70
2018-01-06T20:19:42.531Z,22.80
2018-01-06T20:22:11.992Z,21.87
2018-01-06T20:24:41.484Z,21.83
2018-01-06T20:27:11.810Z,23.60
2018-01-06T20:29:41.258Z,23.67
2018-01-06T20:32:10.714Z,23.17
2018-01-06T20:34:40.163Z,23.50
2018-01-06T20:37:09.640Z,22.60
2018-01-06T20:39:39.073Z,23.40
2018-01-06T20:42:08.696Z,23.37
2018-01-06T20:44:38.115Z,22.87
2018-01-06T20:47:07.583Z,23.20
2018-01-06T20:49:37.164Z,25.13
2018-01-06T20:52:06.598Z,24.17
2018-01-06T20:54:36.075Z,23.70
2018-01-06T20:57:05.512Z,24.00
2018-01-06T20:59:34.980Z,24.60
2018-01-06T21:02:03.922Z,25.40
2018-01-06T21:04:33.491Z,23.50
2018-01-06T21:07:02.934Z,23.60
2018-01-06T21:09:32.432Z,25.20
2018-01-06T21:12:01.879Z,23.77
2018-01-06T21:14:31.413Z,22.90
2018-01-06T21:17:00.890Z,23.37
2018-01-06T21:19:30.373Z,23.00
2018-01-06T21:21:59.831Z,22.30
2018-01-06T21:24:29.367Z,22.93
2018-01-06T21:26:58.812Z,22.70
2018-01-06T21:29:28.290Z,22.17
2018-01-06T21:31:57.769Z,22.37
2018-01-06T21:34:27.292Z,21.40
2018-01-06T21:36:56.941Z,21.40
2018-01-06T21:39:26.409Z,22.10
2018-01-06T21:41:55.876Z,22.30
2018-01-06T21:44:25.322Z,24.07
2018-01-06T21:46:54.965Z,22.67
2018-01-06T21:49:24.419Z,22.50
2018-01-06T21:51:53.884Z,23.53
2018-01-06T21:54:23.340Z,22.90
2018-01-06T21:56:52.820Z,22.60
2018-01-06T21:59:22.276Z,23.67
2018-01-06T22:01:51.734Z,24.00
2018-01-06T22:04:21.181Z,23.33
2018-01-06T22:06:50.662Z,23.30
2018-01-06T22:09:20.115Z,23.10
2018-01-06T22:11:49.725Z,22.73
2018-01-06T22:14:19.170Z,23.10
2018-01-06T22:16:48.643Z,20.70
2018-01-06T22:19:18.133Z,21.63
2018-01-06T22:21:47.589Z,19.30
2018-01-06T22:24:17.056Z,20.60
2018-01-06T22:26:46.529Z,21.90
2018-01-06T22:29:15.994Z,22.40
2018-01-06T22:31:45.442Z,21.87
2018-01-06T22:34:14.889Z,22.80
2018-01-06T22:36:44.333Z,23.90
2018-01-06T22:39:13.804Z,22.90
2018-01-06T22:41:43.249Z,20.67
2018-01-06T22:44:12.729Z,22.50
2018-01-06T22:46:42.169Z,21.93
2018-01-06T22:49:11.601Z,20.70
2018-01-06T22:51:40.789Z,20.90
2018-01-06T22:54:10.230Z,19.53
2018-01-06T22:56:39.677Z,18.83
2018-01-06T22:59:09.098Z,20.80
2018-01-06T23:01:38.550Z,20.30
2018-01-06T23:04:07.981Z,20.47
2018-01-06T23:06:37.570Z,20.77
2018-01-06T23:09:07.021Z,20.60
2018-01-06T23:11:36.529Z,20.10
2018-01-06T23:14:05.982Z,19.23
2018-01-06T23:16:35.438Z,18.47
2018-01-06T23:19:04.888Z,18.57
2018-01-06T23:21:34.331Z,18.00
2018-01-06T23:24:03.786Z,18.80
2018-01-06T23:26:33.241Z,18.97
2018-01-06T23:29:02.836Z,16.50
2018-01-06T23:31:32.288Z,19.10
2018-01-06T23:34:01.740Z,19.00
2018-01-06T23:36:31.178Z,18.57
2018-01-06T23:39:00.698Z,17.43
2018-01-06T23:41:30.127Z,18.07
2018-01-06T23:43:59.601Z,19.00
2018-01-06T23:46:29.031Z,19.43
2018-01-06T23:48:58.578Z,19.27
2018-01-06T23:51:28.023Z,18.23
2018-01-06T23:53:57.572Z,17.03
2018-01-06T23:56:27.033Z,18.13
2018-01-06T23:58:56.469Z,19.00
